Time;durP1;ratioP1;P1;durP2;ratioP2;P2;SDS_P1;SDS_P2;PMS_P1;PMS_P2;Temp;Humidity;BMP_temperature;BMP_pressure;BME280_temperature;BME280_humidity;BME280_pressure;Samples;Min_cycle;Max_cycle;Signal;HPM_P1;HPM_P2
2022/08/04 00:00:11;;;;;;;11.18;3.35;;;16.50;99.90;;;;;;5156201;27;20023;-74
2022/08/04 00:03:09;;;;;;;6.78;3.20;;;16.40;99.90;;;;;;5155968;27;20034;-75
2022/08/04 00:05:46;;;;;;;6.78;3.35;;;16.40;99.90;;;;;;5156593;27;20040;-74
2022/08/04 00:08:34;;;;;;;3.58;3.17;;;16.30;99.90;;;;;;5156047;27;20029;-74
2022/08/04 00:11:00;;;;;;;3.78;3.13;;;16.30;99.90;;;;;;5137739;27;20118;-74
2022/08/04 00:13:30;;;;;;;6.25;2.90;;;16.30;99.90;;;;;;5156180;27;20048;-75
2022/08/04 00:15:57;;;;;;;;;;;16.20;99.90;;;;;;5137919;27;20349;-74
2022/08/04 00:18:29;;;;;;;4.60;3.20;;;16.20;99.90;;;;;;5137524;27;20001;-74
2022/08/04 00:21:03;;;;;;;4.00;3.58;;;16.20;99.90;;;;;;5156471;27;20034;-75
2022/08/04 00:23:33;;;;;;;3.45;3.10;;;16.10;99.90;;;;;;5156002;27;20041;-75
2022/08/04 00:25:59;;;;;;;3.90;3.28;;;16.10;99.90;;;;;;5136673;27;20031;-75
2022/08/04 00:28:26;;;;;;;4.50;2.95;;;16.10;99.90;;;;;;5137158;27;20455;-74
2022/08/04 00:30:53;;;;;;;3.97;3.03;;;16.00;99.90;;;;;;5155615;27;20040;-75
2022/08/04 00:33:20;;;;;;;3.08;2.75;;;16.00;99.90;;;;;;5155565;27;20066;-74
2022/08/04 00:35:47;;;;;;;3.88;3.20;;;15.90;99.90;;;;;;5155571;27;20499;-75
2022/08/04 00:38:18;;;;;;;7.35;3.97;;;15.90;99.90;;;;;;5155391;27;20034;-75
2022/08/04 00:41:05;;;;;;;3.88;3.47;;;15.90;99.90;;;;;;5155717;27;20049;-75
2022/08/04 00:43:41;;;;;;;3.20;2.90;;;15.90;99.90;;;;;;5155379;27;20062;-74
2022/08/04 00:46:45;;;;;;;3.13;2.80;;;15.80;99.90;;;;;;5137382;27;20047;-74
2022/08/04 00:49:14;;;;;;;3.70;3.40;;;15.80;99.90;;;;;;5155951;27;20026;-75
2022/08/04 00:51:39;;;;;;;4.67;3.53;;;15.70;99.90;;;;;;5137371;27;20023;-75
2022/08/04 00:54:25;;;;;;;3.38;3.10;;;15.70;99.90;;;;;;5136964;27;20109;-75
2022/08/04 00:56:50;;;;;;;4.13;3.35;;;15.70;99.90;;;;;;5155890;27;20117;-74
2022/08/04 00:59:50;;;;;;;3.58;3.30;;;15.70;99.90;;;;;;5155498;27;20058;-74
2022/08/04 01:02:28;;;;;;;4.40;3.00;;;15.70;99.90;;;;;;5155677;27;20015;-75
2022/08/04 01:05:14;;;;;;;3.78;2.90;;;15.60;99.90;;;;;;5136938;27;20456;-75
2022/08/04 01:08:05;;;;;;;5.55;3.05;;;15.60;99.90;;;;;;5155198;27;20026;-75
2022/08/04 01:11:09;;;;;;;3.63;3.20;;;15.60;99.90;;;;;;5137028;27;20050;-75
2022/08/04 01:13:41;;;;;;;5.43;3.45;;;15.50;99.90;;;;;;5132466;27;20121;-74
2022/08/04 01:16:11;;;;;;;5.18;3.75;;;15.50;99.90;;;;;;5136991;27;20527;-75
2022/08/04 01:18:55;;;;;;;3.60;3.22;;;15.50;99.90;;;;;;5155795;27;20030;-74
2022/08/04 01:21:46;;;;;;;3.50;3.03;;;15.40;99.90;;;;;;5136731;27;20019;-74
2022/08/04 01:24:18;;;;;;;3.88;3.55;;;15.50;99.90;;;;;;5155560;27;20035;-75
2022/08/04 01:26:46;;;;;;;4.15;3.60;;;15.40;99.90;;;;;;5155288;27;20026;-75
2022/08/04 01:29:14;;;;;;;4.28;3.80;;;15.40;99.90;;;;;;5136853;27;20048;-75
2022/08/04 01:32:06;;;;;;;3.72;3.33;;;15.30;99.90;;;;;;5155418;27;20031;-75
2022/08/04 01:34:46;;;;;;;4.07;3.58;;;15.30;99.90;;;;;;5136775;27;20030;-75
2022/08/04 01:37:32;;;;;;;6.13;4.18;;;15.30;99.90;;;;;;5155357;27;20027;-75
2022/08/04 01:40:04;;;;;;;3.97;3.58;;;15.30;99.90;;;;;;5160192;27;20070;-76
2022/08/04 01:42:34;;;;;;;3.58;3.17;;;15.30;99.90;;;;;;5160012;27;20054;-75
2022/08/04 01:45:07;;;;;;;7.28;3.70;;;15.20;99.90;;;;;;5159501;27;20023;-76
2022/08/04 01:47:37;;;;;;;4.05;3.47;;;15.20;99.90;;;;;;5141180;27;20026;-75
2022/08/04 01:50:11;;;;;;;4.72;3.55;;;15.20;99.90;;;;;;5159407;27;20027;-75
2022/08/04 01:52:39;;;;;;;3.38;3.03;;;15.20;99.90;;;;;;5140502;27;20023;-75
2022/08/04 01:55:08;;;;;;;6.65;3.15;;;15.10;99.90;;;;;;5140430;27;20031;-74
2022/08/04 01:57:45;;;;;;;3.50;3.00;;;15.10;99.90;;;;;;5140336;27;20027;-75
2022/08/04 02:00:14;;;;;;;4.00;3.60;;;15.10;99.90;;;;;;5139978;27;20054;-75
2022/08/04 02:02:40;;;;;;;4.30;3.88;;;15.10;99.90;;;;;;5158780;27;20023;-75
2022/08/04 02:05:09;;;;;;;3.55;3.25;;;15.00;99.90;;;;;;5158732;27;20038;-75
2022/08/04 02:07:46;;;;;;;3.97;3.58;;;15.00;99.90;;;;;;5158676;27;20416;-75
2022/08/04 02:10:33;;;;;;;5.57;3.33;;;14.90;99.90;;;;;;5140131;27;20166;-74
2022/08/04 02:13:27;;;;;;;3.72;3.42;;;14.90;99.90;;;;;;5158764;27;20026;-75
2022/08/04 02:16:27;;;;;;;4.07;3.75;;;14.90;99.90;;;;;;5158736;27;20034;-75
2022/08/04 02:19:14;;;;;;;5.10;3.53;;;14.90;99.90;;;;;;5140036;27;20371;-75
2022/08/04 02:21:41;;;;;;;4.38;3.65;;;14.80;99.90;;;;;;5139898;27;20098;-75
2022/08/04 02:24:12;;;;;;;3.70;3.40;;;14.80;99.90;;;;;;5158379;27;20071;-74
2022/08/04 02:26:41;;;;;;;3.83;3.53;;;14.80;99.90;;;;;;5139782;27;20395;-74
2022/08/04 02:29:16;;;;;;;4.60;4.07;;;14.80;99.90;;;;;;5139744;27;20059;-74
2022/08/04 02:32:03;;;;;;;4.68;3.88;;;14.70;99.90;;;;;;5157887;27;20023;-75
2022/08/04 02:35:09;;;;;;;7.47;3.70;;;14.60;99.90;;;;;;5158096;27;20074;-74
2022/08/04 02:37:36;;;;;;;4.07;3.60;;;14.70;99.90;;;;;;5128155;27;20471;-74
2022/08/04 02:40:05;;;;;;;3.83;3.50;;;14.60;99.90;;;;;;5157808;27;20030;-75
2022/08/04 02:42:32;;;;;;;5.97;3.95;;;14.60;99.90;;;;;;5139452;27;20054;-75
2022/08/04 02:44:59;;;;;;;4.18;3.78;;;14.50;99.90;;;;;;5139687;27;20079;-74
2022/08/04 02:47:27;;;;;;;3.90;3.58;;;14.60;99.90;;;;;;5157637;27;20026;-74
2022/08/04 02:49:55;;;;;;;4.30;3.45;;;14.50;99.90;;;;;;5138273;27;20022;-74
2022/08/04 02:52:23;;;;;;;3.92;3.58;;;14.50;99.90;;;;;;5139260;27;20075;-75
2022/08/04 02:54:52;;;;;;;3.90;3.50;;;14.50;99.90;;;;;;5139167;27;20463;-75
2022/08/04 02:57:20;;;;;;;4.32;3.92;;;14.50;99.90;;;;;;5139180;27;20036;-74
2022/08/04 02:59:58;;;;;;;3.92;3.42;;;14.50;99.90;;;;;;5157682;27;20376;-75
2022/08/04 03:02:34;;;;;;;6.20;3.50;;;14.50;99.90;;;;;;5157973;27;20019;-74
2022/08/04 03:05:06;;;;;;;4.03;3.72;;;14.50;99.90;;;;;;5157427;27;20030;-74
2022/08/04 03:08:17;;;;;;;6.75;3.78;;;14.40;99.90;;;;;;5158089;27;20105;-74
2022/08/04 03:10:52;;;;;;;14.25;4.82;;;14.40;99.90;;;;;;5138890;27;20054;-74
2022/08/04 03:13:27;;;;;;;6.28;4.53;;;14.40;99.90;;;;;;5157059;27;20532;-75
2022/08/04 03:16:05;;;;;;;5.82;3.97;;;14.40;99.90;;;;;;5138888;27;20486;-74
2022/08/04 03:18:52;;;;;;;7.22;4.13;;;14.40;99.90;;;;;;5138808;27;20023;-74
2022/08/04 03:22:05;;;;;;;4.32;3.92;;;14.30;99.90;;;;;;5156906;27;20357;-75
2022/08/04 03:24:52;;;;;;;10.70;4.40;;;14.30;99.90;;;;;;5138583;27;20034;-74
2022/08/04 03:27:37;;;;;;;5.57;4.40;;;14.30;99.90;;;;;;5138461;27;20033;-75
2022/08/04 03:30:17;;;;;;;4.05;3.63;;;14.30;99.90;;;;;;5138830;27;20067;-74
2022/08/04 03:32:49;;;;;;;4.97;3.65;;;14.30;99.90;;;;;;5156718;27;20026;-74
2022/08/04 03:35:51;;;;;;;4.90;3.90;;;14.30;99.90;;;;;;5138102;27;20061;-74
2022/08/04 03:38:26;;;;;;;5.00;4.00;;;14.20;99.90;;;;;;5138343;27;20023;-74
2022/08/04 03:41:04;;;;;;;3.75;3.45;;;14.20;99.90;;;;;;5138474;27;20387;-74
2022/08/04 03:43:50;;;;;;;4.03;3.63;;;14.20;99.90;;;;;;5156596;27;20045;-74
2022/08/04 03:46:46;;;;;;;5.97;4.05;;;14.20;99.90;;;;;;5156525;27;20479;-74
2022/08/04 03:49:23;;;;;;;4.22;3.92;;;14.30;99.90;;;;;;5156819;27;20067;-74
2022/08/04 03:55:36;;;;;;;6.57;4.35;;;14.20;99.90;;;;;;5156380;27;20041;-74
2022/08/04 03:58:40;;;;;;;4.85;3.28;;;14.30;99.90;;;;;;5155189;27;20481;-74
2022/08/04 04:01:38;;;;;;;4.05;3.20;;;14.30;99.90;;;;;;5052194;28;20065;-74
2022/08/04 04:04:29;;;;;;;5.95;3.50;;;14.30;99.90;;;;;;5052501;28;20029;-74
2022/08/04 04:07:30;;;;;;;5.80;3.95;;;14.40;99.90;;;;;;5123791;27;20037;-74
2022/08/04 04:10:20;;;;;;;5.38;3.30;;;14.50;99.90;;;;;;5101149;27;20038;-74
2022/08/04 04:13:04;;;;;;;4.70;3.72;;;14.50;99.90;;;;;;5137976;27;20464;-74
2022/08/04 04:15:52;;;;;;;4.05;3.65;;;14.50;99.90;;;;;;5137707;27;20030;-74
2022/08/04 04:18:51;;;;;;;3.88;3.58;;;14.60;99.90;;;;;;5137620;27;20098;-74
2022/08/04 04:21:44;;;;;;;3.88;3.55;;;14.60;99.90;;;;;;5155804;27;20102;-75
2022/08/04 04:24:47;;;;;;;4.45;3.58;;;14.60;99.90;;;;;;5156138;27;20030;-74
2022/08/04 04:27:33;;;;;;;5.07;3.38;;;14.80;99.90;;;;;;5137089;27;20083;-73
2022/08/04 04:30:09;;;;;;;5.22;3.60;;;14.90;99.90;;;;;;5137612;27;20042;-74
2022/08/04 04:32:53;;;;;;;3.70;3.40;;;15.00;99.90;;;;;;5155478;27;20540;-74
2022/08/04 04:35:30;;;;;;;5.10;3.30;;;15.00;99.90;;;;;;5155678;27;20125;-73
2022/08/04 04:38:06;;;;;;;3.75;3.28;;;15.10;99.90;;;;;;5137315;27;20475;-72
2022/08/04 04:41:00;;;;;;;4.18;3.35;;;15.10;99.90;;;;;;5155471;27;20046;-73
2022/08/04 04:43:44;;;;;;;4.00;3.60;;;15.20;99.90;;;;;;5137180;27;20468;-73
2022/08/04 04:46:36;;;;;;;4.80;3.38;;;15.30;99.90;;;;;;5155604;27;20071;-73
2022/08/04 04:49:01;;;;;;;4.40;3.10;;;15.30;99.90;;;;;;5155374;27;20474;-73
2022/08/04 04:51:51;;;;;;;4.05;3.67;;;15.40;99.90;;;;;;5155272;27;20094;-63
2022/08/04 04:54:50;;;;;;;4.13;3.13;;;15.50;99.90;;;;;;5155701;27;20034;-63
2022/08/04 04:57:28;;;;;;;4.72;3.05;;;15.50;99.90;;;;;;5155282;27;20528;-80
2022/08/04 04:59:57;;;;;;;3.53;3.20;;;15.60;99.90;;;;;;5155554;27;20041;-80
2022/08/04 05:02:34;;;;;;;7.55;4.32;;;15.70;99.90;;;;;;5155435;27;20019;-79
2022/08/04 05:05:15;;;;;;;2.95;2.75;;;15.70;99.90;;;;;;5155224;27;20037;-79
2022/08/04 05:07:57;;;;;;;3.78;3.47;;;15.80;99.90;;;;;;5154373;27;20109;-79
2022/08/04 05:10:31;;;;;;;3.05;2.83;;;15.80;99.90;;;;;;5155448;27;20022;-79
2022/08/04 05:13:11;;;;;;;4.13;2.90;;;15.90;99.90;;;;;;5156534;27;20075;-80
2022/08/04 05:15:41;;;;;;;4.40;3.10;;;16.00;99.90;;;;;;5141048;27;20050;-79
2022/08/04 05:18:11;;;;;;;4.20;3.20;;;16.10;99.90;;;;;;5159470;27;20045;-80
2022/08/04 05:20:42;;;;;;;5.20;3.25;;;16.20;99.90;;;;;;5160107;27;20455;-78
2022/08/04 05:23:14;;;;;;;3.92;3.00;;;16.30;99.90;;;;;;5159487;27;20034;-79
2022/08/04 05:25:48;;;;;;;2.90;2.55;;;16.40;99.90;;;;;;5159333;27;20019;-78
2022/08/04 05:28:27;;;;;;;3.22;2.97;;;16.50;99.90;;;;;;5140939;27;20026;-79
2022/08/04 05:31:09;;;;;;;3.10;2.80;;;16.50;99.90;;;;;;5141092;27;20027;-79
2022/08/04 05:33:59;;;;;;;3.20;2.90;;;16.60;99.90;;;;;;5159172;27;20042;-78
2022/08/04 05:36:47;;;;;;;3.17;2.88;;;16.80;99.90;;;;;;5159254;27;20027;-84
2022/08/04 05:39:27;;;;;;;2.75;2.55;;;16.90;99.90;;;;;;5141314;27;20023;-79
2022/08/04 05:41:55;;;;;;;5.03;3.25;;;17.10;99.90;;;;;;5159013;27;20050;-79
2022/08/04 05:44:22;;;;;;;2.83;2.53;;;17.30;99.90;;;;;;5158885;27;20026;-81
2022/08/04 05:46:51;;;;;;;7.05;2.60;;;17.50;99.90;;;;;;5140644;27;20383;-80
2022/08/04 05:49:18;;;;;;;6.65;3.33;;;17.70;99.90;;;;;;5159175;27;20019;-79
2022/08/04 05:51:45;;;;;;;4.90;3.17;;;17.80;99.90;;;;;;5158951;27;20031;-79
2022/08/04 05:54:13;;;;;;;8.20;2.72;;;18.00;99.90;;;;;;5159467;27;20079;-84
2022/08/04 05:56:41;;;;;;;9.55;2.63;;;18.20;99.90;;;;;;5159411;27;20023;-82
2022/08/04 05:59:09;;;;;;;7.78;2.50;;;18.50;99.90;;;;;;5158681;27;20107;-58
2022/08/04 06:01:38;;;;;;;4.65;2.53;;;18.80;99.90;;;;;;5158607;27;20019;-60
2022/08/04 06:04:05;;;;;;;;;;;19.30;99.90;;;;;;5140778;27;20360;-58
2022/08/04 06:06:31;;;;;;;6.88;2.47;;;20.00;99.90;;;;;;5158399;27;19914;-58
2022/08/04 06:08:57;;;;;;;3.05;2.45;;;20.60;99.90;;;;;;5158513;27;20085;-58
2022/08/04 06:11:26;;;;;;;6.72;3.20;;;21.10;99.90;;;;;;5158542;27;20464;-58
2022/08/04 06:14:02;;;;;;;9.32;3.67;;;21.60;99.90;;;;;;5158647;27;20023;-56
2022/08/04 06:16:37;;;;;;;5.68;2.72;;;22.20;99.90;;;;;;5140129;27;20083;-56
2022/08/04 06:19:07;;;;;;;6.15;2.50;;;22.80;99.90;;;;;;5158437;27;20060;-56
2022/08/04 06:21:33;;;;;;;7.05;2.88;;;23.30;99.90;;;;;;5158613;27;20076;-56
2022/08/04 06:24:01;;;;;;;4.85;2.60;;;23.70;99.20;;;;;;5139652;27;20034;-62
2022/08/04 06:26:29;;;;;;;9.63;4.18;;;24.10;97.60;;;;;;5158231;27;20049;-56
2022/08/04 06:28:56;;;;;;;12.90;3.13;;;24.50;95.40;;;;;;5158568;27;20027;-56
2022/08/04 06:34:09;;;;;;;6.43;2.60;;;25.20;92.80;;;;;;5157791;27;20033;-56
2022/08/04 06:36:36;;;;;;;4.63;2.60;;;25.50;91.10;;;;;;5158118;27;20031;-56
2022/08/04 06:39:04;;;;;;;7.10;2.87;;;25.50;90.10;;;;;;5158208;27;20497;-56
2022/08/04 06:41:31;;;;;;;4.68;2.50;;;25.80;88.70;;;;;;5158563;27;20042;-56
2022/08/04 06:44:04;;;;;;;8.02;2.92;;;26.00;86.10;;;;;;5157732;27;20074;-56
2022/08/04 06:46:31;;;;;;;9.93;2.63;;;26.30;83.70;;;;;;5158011;27;20022;-56
2022/08/04 06:48:58;;;;;;;4.55;2.30;;;26.50;81.00;;;;;;5157914;27;20066;-72
2022/08/04 06:51:24;;;;;;;4.45;2.38;;;26.70;79.20;;;;;;5139278;27;20023;-64
2022/08/04 06:53:50;;;;;;;3.05;2.10;;;26.90;77.50;;;;;;5157581;27;20031;-64
2022/08/04 06:56:18;;;;;;;7.10;2.83;;;27.20;75.60;;;;;;5157783;27;20033;-64
2022/08/04 06:58:45;;;;;;;9.80;2.78;;;27.30;73.90;;;;;;5157906;27;20094;-64
2022/08/04 07:01:13;;;;;;;4.15;2.20;;;27.50;71.00;;;;;;5140411;27;20121;-65
2022/08/04 07:03:39;;;;;;;6.20;2.40;;;27.60;69.10;;;;;;5159888;27;20027;-66
2022/08/04 07:06:06;;;;;;;5.68;2.25;;;27.80;67.80;;;;;;5159565;27;20061;-65
2022/08/04 07:08:33;;;;;;;8.85;2.53;;;27.80;65.60;;;;;;5161124;27;20021;-65
2022/08/04 07:11:00;;;;;;;4.65;2.30;;;27.90;65.60;;;;;;5160444;27;20026;-66
2022/08/04 07:13:27;;;;;;;2.85;2.28;;;28.10;61.60;;;;;;5139131;27;20507;-64
2022/08/04 07:15:54;;;;;;;5.95;2.60;;;28.30;61.90;;;;;;5157548;27;20030;-64
2022/08/04 07:18:19;;;;;;;2.47;2.28;;;28.40;60.40;;;;;;5157286;27;20019;-64
2022/08/04 07:20:46;;;;;;;2.63;2.38;;;28.50;59.70;;;;;;5157336;27;20508;-63
2022/08/04 07:23:16;;;;;;;3.78;2.42;;;28.70;58.10;;;;;;5157182;27;20023;-63
2022/08/04 07:25:43;;;;;;;3.92;2.78;;;28.90;57.40;;;;;;5157184;27;20018;-66
2022/08/04 07:28:09;;;;;;;2.65;2.42;;;29.10;56.70;;;;;;5157369;27;20022;-66
2022/08/04 07:30:36;;;;;;;4.68;2.28;;;29.10;56.00;;;;;;5156808;27;20025;-78
2022/08/04 07:33:03;;;;;;;5.32;2.70;;;29.30;54.90;;;;;;5156841;27;20050;-74
2022/08/04 07:35:29;;;;;;;5.03;2.08;;;29.50;53.80;;;;;;5156101;27;20042;-69
2022/08/04 07:37:55;;;;;;;4.32;2.10;;;29.80;53.50;;;;;;5137917;27;20023;-71
2022/08/04 07:40:21;;;;;;;3.60;1.90;;;30.20;52.50;;;;;;5156681;27;20039;-70
2022/08/04 07:42:46;;;;;;;7.68;2.20;;;30.60;52.00;;;;;;5137856;27;20034;-71
2022/08/04 07:45:16;;;;;;;4.00;2.63;;;30.80;50.50;;;;;;5137737;27;20025;-71
2022/08/04 07:47:42;;;;;;;2.90;2.20;;;30.90;50.50;;;;;;5156331;27;20019;-71
2022/08/04 07:50:11;;;;;;;6.63;2.20;;;30.90;49.60;;;;;;5137919;27;20023;-71
2022/08/04 07:52:38;;;;;;;3.28;1.80;;;31.20;49.40;;;;;;5156214;27;20023;-72
2022/08/04 07:55:04;;;;;;;6.82;2.25;;;31.50;48.50;;;;;;5138191;27;20027;-71
2022/08/04 07:57:30;;;;;;;2.33;2.13;;;31.80;48.40;;;;;;5137536;27;20479;-71
2022/08/04 07:59:56;;;;;;;2.97;1.75;;;32.10;47.90;;;;;;5137846;27;20034;-70
2022/08/04 08:02:22;;;;;;;6.95;2.40;;;32.20;47.00;;;;;;5137710;27;20023;-71
2022/08/04 08:04:48;;;;;;;2.55;2.08;;;32.50;47.10;;;;;;5156372;27;20107;-71
2022/08/04 08:07:14;;;;;;;3.35;1.80;;;32.80;46.00;;;;;;5137817;27;20170;-71
2022/08/04 08:09:40;;;;;;;2.65;1.90;;;33.20;45.40;;;;;;5156006;27;20451;-71
2022/08/04 08:12:07;;;;;;;3.55;2.00;;;33.30;44.30;;;;;;5156588;27;20026;-72
2022/08/04 08:14:34;;;;;;;7.68;1.63;;;33.50;44.20;;;;;;5156155;27;20044;-72
2022/08/04 08:17:01;;;;;;;2.05;1.85;;;33.70;43.60;;;;;;5156151;27;20375;-72
2022/08/04 08:19:28;;;;;;;3.15;1.90;;;33.90;43.70;;;;;;5156113;27;20015;-72
2022/08/04 08:21:53;;;;;;;2.70;1.85;;;34.10;42.80;;;;;;5137611;27;20075;-72
2022/08/04 08:24:19;;;;;;;4.90;1.88;;;34.30;42.20;;;;;;5137411;27;20035;-71
2022/08/04 08:26:45;;;;;;;2.00;1.90;;;34.30;41.90;;;;;;5137438;27;20026;-72
2022/08/04 08:29:11;;;;;;;6.97;2.25;;;34.40;41.80;;;;;;5156253;27;20023;-72
2022/08/04 08:31:37;;;;;;;2.90;1.80;;;34.20;41.60;;;;;;5137303;27;20071;-72
2022/08/04 08:34:03;;;;;;;4.43;2.10;;;34.40;42.00;;;;;;5155801;27;20027;-72
2022/08/04 08:36:42;;;;;;;5.13;2.08;;;34.40;41.60;;;;;;5137229;27;20019;-71
2022/08/04 08:39:23;;;;;;;4.32;1.98;;;34.40;41.00;;;;;;5156207;27;20025;-72
2022/08/04 08:42:13;;;;;;;3.83;1.73;;;34.80;41.40;;;;;;5156395;27;20038;-72
2022/08/04 08:44:55;;;;;;;3.97;1.95;;;35.20;40.50;;;;;;5155635;27;20031;-72
2022/08/04 08:47:43;;;;;;;5.28;2.15;;;35.00;40.10;;;;;;5136474;27;20034;-72
2022/08/04 08:50:56;;;;;;;3.90;1.70;;;35.00;39.30;;;;;;5137164;27;20037;-72
2022/08/04 08:53:36;;;;;;;1.63;1.42;;;35.00;40.00;;;;;;5098510;27;20041;-71
2022/08/04 08:56:26;;;;;;;1.80;1.70;;;35.20;39.00;;;;;;5137035;27;20023;-72
2022/08/04 08:58:54;;;;;;;3.35;1.50;;;35.50;38.90;;;;;;5155660;27;20022;-72
2022/08/04 09:04:54;;;;;;;4.88;1.50;;;35.60;38.50;;;;;;5155192;27;20033;-71
2022/08/04 09:07:47;;;;;;;3.15;1.60;;;35.90;38.50;;;;;;5155281;27;20022;-72
2022/08/04 09:10:31;;;;;;;2.50;1.30;;;35.50;37.00;;;;;;5136781;27;20027;-71
2022/08/04 09:13:39;;;;;;;2.55;1.58;;;35.50;37.80;;;;;;5156063;27;20079;-71
2022/08/04 09:16:26;;;;;;;3.28;2.15;;;34.80;37.20;;;;;;5122996;27;20031;-69
2022/08/04 09:19:16;;;;;;;2.78;1.33;;;34.80;37.70;;;;;;5155369;27;20027;-70
2022/08/04 09:21:49;;;;;;;7.82;1.73;;;34.30;37.00;;;;;;5155191;27;20023;-70
2022/08/04 09:24:46;;;;;;;1.25;1.10;;;33.80;38.20;;;;;;5136660;27;20053;-69
2022/08/04 09:27:17;;;;;;;2.15;1.17;;;33.70;37.50;;;;;;5155314;27;20035;-69
2022/08/04 09:30:04;;;;;;;1.48;1.27;;;33.90;37.40;;;;;;5136647;27;20072;-69
2022/08/04 09:32:52;;;;;;;2.10;1.83;;;34.30;38.20;;;;;;5155262;27;20027;-71
2022/08/04 09:35:32;;;;;;;2.25;1.20;;;35.40;37.30;;;;;;5155664;27;20033;-71
2022/08/04 09:38:25;;;;;;;4.82;1.50;;;35.20;36.60;;;;;;5154838;27;20077;-72
2022/08/04 09:40:54;;;;;;;2.17;1.27;;;35.50;36.40;;;;;;5155125;27;20050;-69
2022/08/04 09:43:32;;;;;;;3.85;1.23;;;34.70;36.20;;;;;;5155002;27;20076;-73
2022/08/04 09:46:05;;;;;;;1.70;1.60;;;35.00;36.80;;;;;;5136429;27;20463;-72
2022/08/04 09:48:48;;;;;;;4.65;1.98;;;35.00;37.20;;;;;;5154990;27;20031;-71
2022/08/04 09:51:24;;;;;;;6.22;1.42;;;35.90;36.90;;;;;;5155076;27;20027;-72
2022/08/04 09:54:02;;;;;;;3.10;1.48;;;37.20;35.10;;;;;;5155538;27;20038;-72
2022/08/04 09:56:47;;;;;;;4.35;1.38;;;37.20;34.70;;;;;;5155023;27;20022;-71
2022/08/04 09:59:44;;;;;;;1.73;1.20;;;36.70;34.80;;;;;;5138012;27;20023;-72
2022/08/04 10:02:12;;;;;;;5.20;1.55;;;36.30;35.50;;;;;;5140345;27;20023;-72
2022/08/04 10:04:41;;;;;;;2.47;1.50;;;36.80;34.80;;;;;;5158703;27;20027;-72
2022/08/04 10:07:15;;;;;;;2.25;1.45;;;37.20;35.00;;;;;;5158452;27;20026;-72
2022/08/04 10:09:47;;;;;;;1.90;1.55;;;37.00;34.70;;;;;;5140361;27;20459;-72
2022/08/04 10:12:50;;;;;;;1.60;1.50;;;37.40;34.10;;;;;;5158778;27;20025;-73
2022/08/04 10:15:35;;;;;;;5.57;1.40;;;37.90;34.10;;;;;;5158552;27;20503;-72
2022/08/04 10:18:15;;;;;;;1.83;1.20;;;37.20;34.20;;;;;;5139878;27;20033;-72
2022/08/04 10:20:53;;;;;;;4.15;1.50;;;36.50;35.10;;;;;;5139986;27;20033;-72
2022/08/04 10:23:24;;;;;;;3.53;1.47;;;36.20;35.40;;;;;;5139807;27;20429;-72
2022/08/04 10:26:00;;;;;;;3.22;1.10;;;36.90;35.30;;;;;;5158078;27;20027;-72
2022/08/04 10:28:29;;;;;;;1.58;1.38;;;38.10;34.60;;;;;;5140052;27;20034;-72
2022/08/04 10:30:56;;;;;;;;;;;38.20;33.90;;;;;;5140007;27;20031;-72
2022/08/04 10:33:38;;;;;;;3.45;1.17;;;38.10;34.50;;;;;;5139517;27;19907;-73
2022/08/04 10:36:11;;;;;;;3.50;1.27;;;39.00;34.10;;;;;;5158245;27;20098;-72
2022/08/04 10:38:50;;;;;;;2.55;1.17;;;38.20;33.70;;;;;;5158285;27;20019;-72
2022/08/04 10:41:22;;;;;;;1.20;1.20;;;37.60;34.30;;;;;;5139150;27;20069;-72
2022/08/04 10:44:10;;;;;;;4.70;1.67;;;37.80;34.10;;;;;;5158007;27;20027;-72
2022/08/04 10:46:46;;;;;;;1.35;1.08;;;38.10;34.00;;;;;;5104796;27;20031;-73
2022/08/04 10:49:49;;;;;;;2.85;1.17;;;38.70;33.00;;;;;;5158060;27;20019;-73
2022/08/04 10:52:36;;;;;;;1.00;0.88;;;38.90;32.80;;;;;;5139564;27;20027;-73
2022/08/04 10:55:34;;;;;;;2.35;1.20;;;37.80;33.00;;;;;;5139341;27;20027;-74
2022/08/04 10:58:06;;;;;;;1.10;1.00;;;37.40;33.20;;;;;;5157720;27;20034;-73
2022/08/04 11:00:37;;;;;;;1.00;1.00;;;36.40;34.00;;;;;;5158092;27;20254;-72
2022/08/04 11:03:07;;;;;;;2.80;1.00;;;35.70;35.00;;;;;;5157367;27;20468;-72
2022/08/04 11:05:51;;;;;;;3.45;1.02;;;36.40;36.20;;;;;;5138830;27;20472;-72
2022/08/04 11:08:30;;;;;;;5.25;1.23;;;37.60;33.80;;;;;;5157645;27;20523;-71
2022/08/04 11:11:04;;;;;;;1.55;1.15;;;37.90;33.70;;;;;;5155221;27;20019;-70
2022/08/04 11:13:52;;;;;;;1.48;1.38;;;38.30;33.10;;;;;;5139341;27;20075;-74
2022/08/04 11:16:41;;;;;;;2.70;1.00;;;38.60;32.50;;;;;;5141706;27;20034;-70
2022/08/04 11:19:13;;;;;;;0.90;0.90;;;37.80;33.20;;;;;;5138956;27;20023;-70
2022/08/04 11:21:46;;;;;;;1.90;0.95;;;37.40;33.80;;;;;;5138765;27;20071;-69
2022/08/04 11:24:25;;;;;;;0.80;0.80;;;37.20;34.00;;;;;;5138961;27;20026;-69
2022/08/04 11:27:00;;;;;;;1.25;1.15;;;37.50;34.40;;;;;;5138623;27;20035;-69
2022/08/04 11:29:48;;;;;;;1.08;1.02;;;38.60;32.80;;;;;;5156949;27;20452;-70
2022/08/04 11:32:25;;;;;;;;;;;39.70;32.50;;;;;;5157535;27;20071;-70
2022/08/04 11:34:56;;;;;;;3.33;1.25;;;40.60;32.00;;;;;;5157181;27;19907;-70
2022/08/04 11:37:34;;;;;;;2.47;1.00;;;41.10;31.50;;;;;;5157545;27;20023;-71
2022/08/04 11:40:08;;;;;;;1.73;1.10;;;41.80;30.50;;;;;;5157024;27;20023;-70
2022/08/04 11:42:38;;;;;;;1.90;1.40;;;41.80;31.00;;;;;;5156929;27;20039;-71
2022/08/04 11:45:18;;;;;;;2.33;1.40;;;41.80;30.40;;;;;;5138564;27;20387;-70
2022/08/04 11:47:54;;;;;;;2.03;1.30;;;41.90;30.60;;;;;;5156427;27;20026;-70
2022/08/04 11:50:40;;;;;;;1.10;0.85;;;42.40;30.10;;;;;;5156688;27;20023;-70
2022/08/04 11:53:08;;;;;;;3.78;1.10;;;41.20;30.10;;;;;;5156678;27;20023;-70
2022/08/04 11:55:37;;;;;;;1.00;1.00;;;40.50;30.70;;;;;;5156508;27;20023;-72
2022/08/04 11:58:03;;;;;;;1.00;1.00;;;40.10;30.60;;;;;;5156572;27;20027;-69
2022/08/04 12:00:31;;;;;;;3.65;1.02;;;39.30;31.30;;;;;;5157472;27;20478;-69
2022/08/04 12:03:08;;;;;;;2.80;1.20;;;40.30;31.10;;;;;;5157875;27;20023;-70
2022/08/04 12:05:57;;;;;;;2.38;1.00;;;40.70;30.40;;;;;;5158467;27;20104;-69
2022/08/04 12:08:43;;;;;;;1.27;1.10;;;40.20;30.50;;;;;;5140019;27;20026;-70
2022/08/04 12:11:38;;;;;;;2.40;1.08;;;39.40;31.00;;;;;;5139598;27;20049;-69
2022/08/04 12:14:20;;;;;;;1.33;1.23;;;39.70;31.00;;;;;;5064201;27;20048;-69
2022/08/04 12:17:01;;;;;;;1.80;1.10;;;39.40;31.30;;;;;;5137534;27;20023;-69
2022/08/04 12:19:48;;;;;;;2.70;1.30;;;38.90;31.20;;;;;;5155725;27;20053;-69
2022/08/04 12:22:20;;;;;;;2.00;0.97;;;39.40;31.40;;;;;;5137412;27;20023;-69
2022/08/04 12:24:51;;;;;;;1.00;1.00;;;40.20;31.30;;;;;;5137711;27;20323;-69
2022/08/04 12:27:26;;;;;;;1.88;1.00;;;39.40;31.00;;;;;;5137495;27;20026;-69
2022/08/04 12:29:53;;;;;;;1.17;1.08;;;39.70;31.40;;;;;;5137398;27;20029;-69
2022/08/04 12:32:32;;;;;;;0.98;0.95;;;40.20;31.00;;;;;;5156063;27;20023;-69
2022/08/04 12:35:13;;;;;;;1.95;1.00;;;41.00;30.80;;;;;;5155596;27;20444;-72
2022/08/04 12:38:10;;;;;;;3.03;0.80;;;42.20;30.00;;;;;;5137276;27;20052;-72
2022/08/04 12:40:58;;;;;;;3.97;1.13;;;41.80;29.90;;;;;;5137106;27;20046;-72
2022/08/04 12:43:41;;;;;;;1.42;1.05;;;41.90;29.90;;;;;;5123193;27;20030;-72
2022/08/04 12:46:18;;;;;;;3.63;1.10;;;42.10;29.50;;;;;;5155300;27;20515;-72
2022/08/04 12:48:46;;;;;;;1.48;1.30;;;41.90;29.90;;;;;;5137063;27;20075;-71
2022/08/04 12:51:12;;;;;;;1.35;0.90;;;41.10;29.70;;;;;;5156131;27;20054;-72
2022/08/04 12:53:42;;;;;;;1.30;1.20;;;40.70;30.00;;;;;;5136924;27;20425;-73
2022/08/04 12:56:10;;;;;;;1.42;0.98;;;40.20;29.80;;;;;;5136918;27;20026;-72
2022/08/04 12:58:39;;;;;;;2.13;0.93;;;40.30;30.30;;;;;;5136914;27;20031;-72
2022/08/04 13:01:20;;;;;;;0.80;0.80;;;40.30;30.00;;;;;;5155458;27;20038;-72
2022/08/04 13:03:53;;;;;;;1.80;0.98;;;40.60;30.60;;;;;;5155251;27;20023;-72
2022/08/04 13:06:31;;;;;;;1.20;1.10;;;41.50;30.10;;;;;;5155273;27;20083;-72
2022/08/04 13:09:10;;;;;;;1.70;1.15;;;41.50;29.20;;;;;;5136880;27;20109;-72
2022/08/04 13:11:39;;;;;;;2.15;1.15;;;41.30;29.60;;;;;;5155382;27;20103;-73
2022/08/04 13:14:06;;;;;;;1.63;0.90;;;41.30;29.50;;;;;;5155314;27;20030;-74
2022/08/04 13:16:33;;;;;;;1.00;1.00;;;41.60;29.30;;;;;;5137174;27;20110;-74
2022/08/04 13:19:00;;;;;;;4.93;1.00;;;40.60;29.60;;;;;;5155700;27;20034;-73
2022/08/04 13:21:29;;;;;;;2.30;1.10;;;40.60;29.90;;;;;;5155315;27;20106;-74
2022/08/04 13:24:05;;;;;;;1.00;0.90;;;41.30;29.50;;;;;;5155113;27;20030;-74
2022/08/04 13:26:33;;;;;;;2.03;1.10;;;42.10;29.20;;;;;;5155416;27;20041;-74
2022/08/04 13:29:02;;;;;;;3.20;1.08;;;43.00;29.30;;;;;;5155240;27;20038;-73
2022/08/04 13:31:28;;;;;;;2.80;1.15;;;43.20;28.80;;;;;;5154999;27;20019;-74
2022/08/04 13:34:06;;;;;;;4.93;1.13;;;43.10;28.70;;;;;;5137818;27;20388;-74
2022/08/04 13:36:34;;;;;;;0.93;0.77;;;43.20;28.90;;;;;;5159308;27;20030;-73
2022/08/04 13:39:06;;;;;;;1.00;1.00;;;42.40;29.10;;;;;;5140910;27;20023;-73
2022/08/04 13:41:35;;;;;;;2.38;0.98;;;42.00;29.20;;;;;;5159082;27;20058;-73
2022/08/04 13:44:08;;;;;;;1.40;1.30;;;39.90;29.70;;;;;;5159065;27;20471;-73